Stuart, FL (34996)

9:57 AM EDT on September 01, 2014 (GMT -0400)
Port Sewall | Change Station
CLOSE
Current Station
Personal Weather Station
Location: Stuart, FL
Elevation: 33 ft
Nearby Weather Stations

Elev 33 ft 27.18 °N, 80.20 °W | Updated 45 seconds ago

Scattered Clouds
Scattered Clouds
85.9 °F
Feels Like 98 °F
N
0.0
Wind Variable Wind from SSE
Gusts 4.0 mph

Today
High -- | Low -- °F
--% Chance of Precip.
Yesterday
High -- | Low -- °F
Precip. -- in
7:00 AM 7:41 PM
Waxing Crescent, 41% visible
Pressure 30.12 in
Visibility 7.0 miles
Clouds Scattered Clouds 2500 ft
Heat Index 98 °F
Dew Point 78 °F
Humidity 76%
Rainfall 0.00 in
Snow Depth Not available.
UV 4 out of 12
Pollen 5.20 out of 12
Air Quality Not available.
Flu Activity Not available.
METAR KSUA 011347Z 10007KT 7SM SCT025 29/23 A3012

More Conditions Fewer Conditions

Pressure 30.12 in
Visibility 7.0 miles
Clouds Scattered Clouds 2500 ft
Heat Index 98 °F
Dew Point 78 °F
Humidity 76%
Rainfall 0.00 in
Snow Depth Not available.
UV 4 out of 12
Pollen 5.20 out of 12
Air Quality Not available.
Flu Activity Not available.
METAR KSUA 011347Z 10007KT 7SM SCT025 29/23 A3012

More Conditions Fewer Conditions

10-Day Weather Forecast

Almanac

Astronomy

Sep. 01, 2014 Rise Set
Actual Time 7:00 AM EDT 7:41 PM EDT
Civil Twilight 6:36 AM EDT 8:04 PM EDT
Nautical Twilight 6:08 AM EDT 8:32 PM EDT
Astronomical Twilight 5:40 AM EDT 9:00 PM EDT
Moon 1:08 PM EDT No Moon Set
Length of Visible Light 13h 28m
Length of Day
12h 41m
Tomorrow will be 1m 33s shorter.
Waxing Crescent, 41% of the Moon is Illuminated
Today
Waxing Crescent
Sep 2
First Quarter
Sep 8
Full
Sep 15
Last Quarter
Sep 24
New

Today's Extremes

State Highs State Lows

Community

WunderPhotos

Upload Photos

1,749,222 photos uploaded!

Nearby

Snow Depth

Station Depth Elevation
No new snow has been reported.

Earthquake Activity

City Distance Mag. Time & Date
No recent earthquake activity has been reported nearby.
Minimum magnitude displayed is 2.5.

Coastal Water Temperatures

Place Temperature
Lake Worth, FL 87.1 °F
Trident Pier, FL 86.0 °F
Virginia Key, FL 86.0 °F

Nearby Weather Stations